sensor_id;sensor_type;location;lat;lon;timestamp;P1;durP1;ratioP1;P2;durP2;ratioP2
43154;SDS011;34212;51.018;13.586;2023-03-16T00:03:16;8.43;;;3.80;;
43154;SDS011;34212;51.018;13.586;2023-03-16T00:08:21;12.38;;;4.32;;
43154;SDS011;34212;51.018;13.586;2023-03-16T00:13:23;7.32;;;4.03;;
43154;SDS011;34212;51.018;13.586;2023-03-16T00:18:26;13.85;;;4.70;;
43154;SDS011;34212;51.018;13.586;2023-03-16T00:23:29;10.23;;;3.90;;
43154;SDS011;34212;51.018;13.586;2023-03-16T00:28:35;5.38;;;3.20;;
43154;SDS011;34212;51.018;13.586;2023-03-16T00:33:37;8.00;;;3.65;;
43154;SDS011;34212;51.018;13.586;2023-03-16T00:38:40;5.45;;;3.45;;
43154;SDS011;34212;51.018;13.586;2023-03-16T00:43:45;7.32;;;3.20;;
43154;SDS011;34212;51.018;13.586;2023-03-16T00:48:48;6.65;;;3.85;;
43154;SDS011;34212;51.018;13.586;2023-03-16T00:53:51;4.70;;;3.00;;
43154;SDS011;34212;51.018;13.586;2023-03-16T00:58:53;4.60;;;2.92;;
43154;SDS011;34212;51.018;13.586;2023-03-16T01:03:58;6.93;;;2.80;;
43154;SDS011;34212;51.018;13.586;2023-03-16T01:08:59;5.50;;;3.42;;
43154;SDS011;34212;51.018;13.586;2023-03-16T01:14:03;8.27;;;3.35;;
43154;SDS011;34212;51.018;13.586;2023-03-16T01:19:05;5.40;;;3.40;;
43154;SDS011;34212;51.018;13.586;2023-03-16T01:24:07;5.07;;;3.17;;
43154;SDS011;34212;51.018;13.586;2023-03-16T01:29:09;4.82;;;3.28;;
43154;SDS011;34212;51.018;13.586;2023-03-16T01:34:13;7.53;;;3.38;;
43154;SDS011;34212;51.018;13.586;2023-03-16T01:39:18;4.63;;;3.08;;
43154;SDS011;34212;51.018;13.586;2023-03-16T01:44:23;6.93;;;3.28;;
43154;SDS011;34212;51.018;13.586;2023-03-16T01:49:39;4.85;;;3.85;;
43154;SDS011;34212;51.018;13.586;2023-03-16T01:54:50;6.57;;;3.63;;
43154;SDS011;34212;51.018;13.586;2023-03-16T02:00:04;11.07;;;3.35;;
43154;SDS011;34212;51.018;13.586;2023-03-16T02:05:23;5.25;;;3.25;;
43154;SDS011;34212;51.018;13.586;2023-03-16T02:10:34;5.78;;;3.70;;
43154;SDS011;34212;51.018;13.586;2023-03-16T02:20:45;6.80;;;3.20;;
43154;SDS011;34212;51.018;13.586;2023-03-16T02:31:06;7.63;;;3.15;;
43154;SDS011;34212;51.018;13.586;2023-03-16T02:36:07;7.47;;;3.22;;
43154;SDS011;34212;51.018;13.586;2023-03-16T02:41:15;6.88;;;3.30;;
43154;SDS011;34212;51.018;13.586;2023-03-16T02:46:22;9.95;;;3.92;;
43154;SDS011;34212;51.018;13.586;2023-03-16T02:51:27;5.20;;;3.38;;
43154;SDS011;34212;51.018;13.586;2023-03-16T02:56:29;10.75;;;3.50;;
43154;SDS011;34212;51.018;13.586;2023-03-16T03:01:31;7.78;;;3.60;;
43154;SDS011;34212;51.018;13.586;2023-03-16T03:06:34;8.40;;;3.40;;
43154;SDS011;34212;51.018;13.586;2023-03-16T03:11:36;10.57;;;4.43;;
43154;SDS011;34212;51.018;13.586;2023-03-16T03:16:38;6.50;;;3.00;;
43154;SDS011;34212;51.018;13.586;2023-03-16T03:21:40;7.30;;;3.60;;
43154;SDS011;34212;51.018;13.586;2023-03-16T03:26:42;6.47;;;4.00;;
43154;SDS011;34212;51.018;13.586;2023-03-16T03:31:50;6.45;;;3.80;;
43154;SDS011;34212;51.018;13.586;2023-03-16T03:36:52;6.35;;;3.30;;
43154;SDS011;34212;51.018;13.586;2023-03-16T03:41:54;5.90;;;3.97;;
43154;SDS011;34212;51.018;13.586;2023-03-16T03:46:56;8.50;;;3.77;;
43154;SDS011;34212;51.018;13.586;2023-03-16T03:52:00;6.63;;;3.70;;
43154;SDS011;34212;51.018;13.586;2023-03-16T03:57:05;6.97;;;3.60;;
43154;SDS011;34212;51.018;13.586;2023-03-16T04:02:07;6.88;;;3.58;;
43154;SDS011;34212;51.018;13.586;2023-03-16T04:07:15;9.20;;;3.95;;
43154;SDS011;34212;51.018;13.586;2023-03-16T04:12:18;8.25;;;3.58;;
43154;SDS011;34212;51.018;13.586;2023-03-16T04:17:20;9.93;;;3.93;;
43154;SDS011;34212;51.018;13.586;2023-03-16T04:22:23;8.60;;;3.22;;
43154;SDS011;34212;51.018;13.586;2023-03-16T04:27:25;8.10;;;3.30;;
43154;SDS011;34212;51.018;13.586;2023-03-16T04:32:26;11.32;;;3.70;;
43154;SDS011;34212;51.018;13.586;2023-03-16T04:37:29;9.05;;;2.75;;
43154;SDS011;34212;51.018;13.586;2023-03-16T04:42:31;7.50;;;3.13;;
43154;SDS011;34212;51.018;13.586;2023-03-16T04:47:33;6.03;;;2.95;;
43154;SDS011;34212;51.018;13.586;2023-03-16T04:52:34;4.78;;;3.05;;
43154;SDS011;34212;51.018;13.586;2023-03-16T04:57:36;5.40;;;2.90;;
43154;SDS011;34212;51.018;13.586;2023-03-16T05:02:38;5.70;;;2.80;;
43154;SDS011;34212;51.018;13.586;2023-03-16T05:07:40;7.03;;;3.05;;
43154;SDS011;34212;51.018;13.586;2023-03-16T05:12:45;6.70;;;3.33;;
43154;SDS011;34212;51.018;13.586;2023-03-16T05:17:47;6.80;;;2.80;;
43154;SDS011;34212;51.018;13.586;2023-03-16T05:22:50;9.30;;;3.40;;
43154;SDS011;34212;51.018;13.586;2023-03-16T05:27:57;5.13;;;2.75;;
43154;SDS011;34212;51.018;13.586;2023-03-16T05:33:22;8.23;;;3.50;;
43154;SDS011;34212;51.018;13.586;2023-03-16T05:38:29;4.93;;;2.47;;
43154;SDS011;34212;51.018;13.586;2023-03-16T05:43:32;6.97;;;2.72;;
43154;SDS011;34212;51.018;13.586;2023-03-16T05:48:34;5.97;;;2.97;;
43154;SDS011;34212;51.018;13.586;2023-03-16T05:53:37;8.10;;;2.97;;
43154;SDS011;34212;51.018;13.586;2023-03-16T05:58:45;8.07;;;2.80;;
43154;SDS011;34212;51.018;13.586;2023-03-16T06:03:47;7.93;;;2.97;;
43154;SDS011;34212;51.018;13.586;2023-03-16T06:08:53;5.60;;;2.63;;
43154;SDS011;34212;51.018;13.586;2023-03-16T06:13:58;8.57;;;2.92;;
43154;SDS011;34212;51.018;13.586;2023-03-16T06:19:01;4.72;;;2.85;;
43154;SDS011;34212;51.018;13.586;2023-03-16T06:24:04;7.05;;;2.75;;
43154;SDS011;34212;51.018;13.586;2023-03-16T06:34:11;5.55;;;2.28;;
43154;SDS011;34212;51.018;13.586;2023-03-16T06:39:13;10.80;;;3.20;;
43154;SDS011;34212;51.018;13.586;2023-03-16T06:44:21;5.13;;;2.33;;
43154;SDS011;34212;51.018;13.586;2023-03-16T06:49:41;6.95;;;2.67;;
43154;SDS011;34212;51.018;13.586;2023-03-16T06:54:51;5.05;;;2.28;;
43154;SDS011;34212;51.018;13.586;2023-03-16T06:59:53;9.07;;;2.67;;
43154;SDS011;34212;51.018;13.586;2023-03-16T07:04:55;5.78;;;2.10;;
43154;SDS011;34212;51.018;13.586;2023-03-16T07:09:57;4.73;;;2.40;;
43154;SDS011;34212;51.018;13.586;2023-03-16T07:14:59;5.18;;;2.30;;
43154;SDS011;34212;51.018;13.586;2023-03-16T07:20:06;9.57;;;2.45;;
43154;SDS011;34212;51.018;13.586;2023-03-16T07:25:11;4.95;;;2.55;;
43154;SDS011;34212;51.018;13.586;2023-03-16T07:30:19;6.40;;;2.22;;
43154;SDS011;34212;51.018;13.586;2023-03-16T07:35:22;6.18;;;1.95;;
43154;SDS011;34212;51.018;13.586;2023-03-16T07:40:24;4.53;;;2.45;;
43154;SDS011;34212;51.018;13.586;2023-03-16T07:45:30;8.25;;;2.33;;
43154;SDS011;34212;51.018;13.586;2023-03-16T07:50:32;6.43;;;2.00;;
43154;SDS011;34212;51.018;13.586;2023-03-16T07:55:33;6.90;;;1.83;;
43154;SDS011;34212;51.018;13.586;2023-03-16T08:00:38;11.10;;;2.03;;
43154;SDS011;34212;51.018;13.586;2023-03-16T08:05:40;6.90;;;2.07;;
43154;SDS011;34212;51.018;13.586;2023-03-16T08:10:47;5.00;;;1.88;;
43154;SDS011;34212;51.018;13.586;2023-03-16T08:15:53;6.15;;;1.73;;
43154;SDS011;34212;51.018;13.586;2023-03-16T08:21:09;4.78;;;1.63;;
43154;SDS011;34212;51.018;13.586;2023-03-16T08:26:10;6.53;;;1.90;;
43154;SDS011;34212;51.018;13.586;2023-03-16T08:31:13;4.70;;;1.98;;
43154;SDS011;34212;51.018;13.586;2023-03-16T08:36:24;9.15;;;1.70;;
43154;SDS011;34212;51.018;13.586;2023-03-16T08:41:28;5.50;;;1.65;;
43154;SDS011;34212;51.018;13.586;2023-03-16T08:46:34;6.70;;;1.83;;
43154;SDS011;34212;51.018;13.586;2023-03-16T08:51:36;4.43;;;1.30;;
43154;SDS011;34212;51.018;13.586;2023-03-16T08:56:37;5.13;;;1.38;;
43154;SDS011;34212;51.018;13.586;2023-03-16T09:01:39;5.15;;;1.40;;
43154;SDS011;34212;51.018;13.586;2023-03-16T09:06:41;5.80;;;1.20;;
43154;SDS011;34212;51.018;13.586;2023-03-16T09:11:42;5.38;;;1.73;;
43154;SDS011;34212;51.018;13.586;2023-03-16T09:16:44;4.80;;;1.00;;
43154;SDS011;34212;51.018;13.586;2023-03-16T09:21:46;4.80;;;1.20;;
43154;SDS011;34212;51.018;13.586;2023-03-16T09:26:47;2.55;;;1.17;;
43154;SDS011;34212;51.018;13.586;2023-03-16T09:31:49;1.73;;;1.00;;
43154;SDS011;34212;51.018;13.586;2023-03-16T09:36:50;5.90;;;1.20;;
43154;SDS011;34212;51.018;13.586;2023-03-16T09:47:09;1.92;;;0.90;;
43154;SDS011;34212;51.018;13.586;2023-03-16T09:52:19;6.38;;;1.20;;
43154;SDS011;34212;51.018;13.586;2023-03-16T09:57:31;1.77;;;0.95;;
43154;SDS011;34212;51.018;13.586;2023-03-16T10:02:42;3.58;;;1.00;;
43154;SDS011;34212;51.018;13.586;2023-03-16T10:13:09;5.10;;;1.40;;
43154;SDS011;34212;51.018;13.586;2023-03-16T10:18:19;3.00;;;0.90;;
43154;SDS011;34212;51.018;13.586;2023-03-16T10:23:24;2.42;;;0.98;;
43154;SDS011;34212;51.018;13.586;2023-03-16T10:28:27;4.40;;;1.63;;
43154;SDS011;34212;51.018;13.586;2023-03-16T10:33:33;5.75;;;1.40;;
43154;SDS011;34212;51.018;13.586;2023-03-16T10:43:40;5.80;;;1.30;;
43154;SDS011;34212;51.018;13.586;2023-03-16T10:48:49;4.47;;;1.33;;
43154;SDS011;34212;51.018;13.586;2023-03-16T10:54:08;5.95;;;1.55;;
43154;SDS011;34212;51.018;13.586;2023-03-16T11:04:31;4.65;;;1.65;;
43154;SDS011;34212;51.018;13.586;2023-03-16T11:09:34;4.65;;;1.70;;
43154;SDS011;34212;51.018;13.586;2023-03-16T11:14:37;6.45;;;1.70;;
43154;SDS011;34212;51.018;13.586;2023-03-16T11:19:40;4.47;;;1.50;;
43154;SDS011;34212;51.018;13.586;2023-03-16T11:35:18;3.72;;;1.75;;
43154;SDS011;34212;51.018;13.586;2023-03-16T11:40:35;8.32;;;1.65;;
43154;SDS011;34212;51.018;13.586;2023-03-16T11:56:44;4.20;;;1.83;;
43154;SDS011;34212;51.018;13.586;2023-03-16T12:07:04;5.28;;;1.40;;
43154;SDS011;34212;51.018;13.586;2023-03-16T12:17:28;3.42;;;1.60;;
43154;SDS011;34212;51.018;13.586;2023-03-16T12:22:33;2.83;;;1.60;;
43154;SDS011;34212;51.018;13.586;2023-03-16T12:27:39;2.58;;;1.58;;
43154;SDS011;34212;51.018;13.586;2023-03-16T12:43:26;4.68;;;1.70;;
43154;SDS011;34212;51.018;13.586;2023-03-16T12:48:36;4.22;;;2.20;;
43154;SDS011;34212;51.018;13.586;2023-03-16T12:53:42;4.15;;;1.85;;
43154;SDS011;34212;51.018;13.586;2023-03-16T12:58:54;5.70;;;2.28;;
43154;SDS011;34212;51.018;13.586;2023-03-16T13:03:59;5.25;;;2.40;;
43154;SDS011;34212;51.018;13.586;2023-03-16T13:09:03;4.00;;;2.08;;
43154;SDS011;34212;51.018;13.586;2023-03-16T13:14:07;6.20;;;2.45;;
43154;SDS011;34212;51.018;13.586;2023-03-16T13:24:43;3.95;;;2.17;;
43154;SDS011;34212;51.018;13.586;2023-03-16T13:29:56;5.22;;;3.38;;
43154;SDS011;34212;51.018;13.586;2023-03-16T13:34:59;3.47;;;2.28;;
43154;SDS011;34212;51.018;13.586;2023-03-16T13:40:22;5.72;;;2.38;;
43154;SDS011;34212;51.018;13.586;2023-03-16T13:45:30;5.15;;;2.45;;
43154;SDS011;34212;51.018;13.586;2023-03-16T13:50:33;3.92;;;2.50;;
43154;SDS011;34212;51.018;13.586;2023-03-16T13:55:36;9.57;;;3.08;;
43154;SDS011;34212;51.018;13.586;2023-03-16T14:00:42;4.38;;;2.90;;
43154;SDS011;34212;51.018;13.586;2023-03-16T14:05:44;5.30;;;2.85;;
43154;SDS011;34212;51.018;13.586;2023-03-16T14:10:46;6.63;;;2.22;;
43154;SDS011;34212;51.018;13.586;2023-03-16T14:15:48;4.13;;;2.60;;
43154;SDS011;34212;51.018;13.586;2023-03-16T14:20:51;5.00;;;2.43;;
43154;SDS011;34212;51.018;13.586;2023-03-16T14:25:54;4.45;;;2.60;;
43154;SDS011;34212;51.018;13.586;2023-03-16T14:31:06;7.10;;;2.55;;
43154;SDS011;34212;51.018;13.586;2023-03-16T14:36:12;3.50;;;2.42;;
43154;SDS011;34212;51.018;13.586;2023-03-16T14:41:22;4.82;;;1.98;;
43154;SDS011;34212;51.018;13.586;2023-03-16T14:46:27;6.53;;;2.70;;
43154;SDS011;34212;51.018;13.586;2023-03-16T14:51:31;5.72;;;2.90;;
43154;SDS011;34212;51.018;13.586;2023-03-16T14:56:34;4.57;;;2.53;;
43154;SDS011;34212;51.018;13.586;2023-03-16T15:01:36;5.80;;;2.33;;
43154;SDS011;34212;51.018;13.586;2023-03-16T15:06:38;6.30;;;2.30;;
43154;SDS011;34212;51.018;13.586;2023-03-16T15:11:40;7.97;;;3.08;;
43154;SDS011;34212;51.018;13.586;2023-03-16T15:16:44;5.88;;;3.40;;
43154;SDS011;34212;51.018;13.586;2023-03-16T15:21:46;5.97;;;3.10;;
43154;SDS011;34212;51.018;13.586;2023-03-16T15:26:47;6.88;;;3.70;;
43154;SDS011;34212;51.018;13.586;2023-03-16T15:31:49;6.18;;;3.67;;
43154;SDS011;34212;51.018;13.586;2023-03-16T15:36:54;6.90;;;3.47;;
43154;SDS011;34212;51.018;13.586;2023-03-16T15:41:56;7.75;;;3.55;;
43154;SDS011;34212;51.018;13.586;2023-03-16T15:46:57;6.90;;;3.63;;
43154;SDS011;34212;51.018;13.586;2023-03-16T15:57:02;6.22;;;3.70;;
43154;SDS011;34212;51.018;13.586;2023-03-16T16:02:08;8.07;;;4.40;;
43154;SDS011;34212;51.018;13.586;2023-03-16T16:07:25;4.18;;;3.38;;
43154;SDS011;34212;51.018;13.586;2023-03-16T16:12:27;9.97;;;4.03;;
43154;SDS011;34212;51.018;13.586;2023-03-16T16:17:31;4.70;;;3.60;;
43154;SDS011;34212;51.018;13.586;2023-03-16T16:22:53;7.78;;;3.42;;
43154;SDS011;34212;51.018;13.586;2023-03-16T16:27:59;8.48;;;4.57;;
43154;SDS011;34212;51.018;13.586;2023-03-16T16:33:01;7.85;;;4.03;;
43154;SDS011;34212;51.018;13.586;2023-03-16T16:38:03;7.13;;;3.55;;
43154;SDS011;34212;51.018;13.586;2023-03-16T16:43:04;7.43;;;3.40;;
43154;SDS011;34212;51.018;13.586;2023-03-16T16:48:08;5.50;;;3.50;;
43154;SDS011;34212;51.018;13.586;2023-03-16T16:53:28;8.93;;;4.18;;
43154;SDS011;34212;51.018;13.586;2023-03-16T16:58:30;5.82;;;4.10;;
43154;SDS011;34212;51.018;13.586;2023-03-16T17:03:32;6.67;;;4.53;;
43154;SDS011;34212;51.018;13.586;2023-03-16T17:08:34;11.48;;;5.32;;
43154;SDS011;34212;51.018;13.586;2023-03-16T17:13:36;10.90;;;4.68;;
43154;SDS011;34212;51.018;13.586;2023-03-16T17:18:40;13.77;;;4.38;;
43154;SDS011;34212;51.018;13.586;2023-03-16T17:23:42;7.90;;;4.65;;
43154;SDS011;34212;51.018;13.586;2023-03-16T17:28:52;8.30;;;5.55;;
43154;SDS011;34212;51.018;13.586;2023-03-16T17:33:57;11.60;;;6.07;;
43154;SDS011;34212;51.018;13.586;2023-03-16T17:38:58;10.77;;;5.45;;
43154;SDS011;34212;51.018;13.586;2023-03-16T17:44:03;9.02;;;4.88;;
43154;SDS011;34212;51.018;13.586;2023-03-16T17:49:15;10.43;;;5.90;;
43154;SDS011;34212;51.018;13.586;2023-03-16T17:54:20;8.60;;;4.78;;
43154;SDS011;34212;51.018;13.586;2023-03-16T17:59:21;11.43;;;6.03;;
43154;SDS011;34212;51.018;13.586;2023-03-16T18:04:23;8.50;;;5.78;;
43154;SDS011;34212;51.018;13.586;2023-03-16T18:09:26;7.13;;;4.40;;
43154;SDS011;34212;51.018;13.586;2023-03-16T18:14:32;8.73;;;4.78;;
43154;SDS011;34212;51.018;13.586;2023-03-16T18:19:36;7.07;;;4.30;;
43154;SDS011;34212;51.018;13.586;2023-03-16T18:24:37;7.40;;;4.38;;
43154;SDS011;34212;51.018;13.586;2023-03-16T18:29:40;12.30;;;4.27;;
43154;SDS011;34212;51.018;13.586;2023-03-16T18:34:42;7.97;;;4.30;;
43154;SDS011;34212;51.018;13.586;2023-03-16T18:39:43;8.07;;;3.60;;
43154;SDS011;34212;51.018;13.586;2023-03-16T18:44:45;8.65;;;4.47;;
43154;SDS011;34212;51.018;13.586;2023-03-16T18:49:47;7.45;;;3.70;;
43154;SDS011;34212;51.018;13.586;2023-03-16T18:54:52;14.23;;;4.07;;
43154;SDS011;34212;51.018;13.586;2023-03-16T18:59:55;9.27;;;4.28;;
43154;SDS011;34212;51.018;13.586;2023-03-16T19:04:57;6.72;;;3.95;;
43154;SDS011;34212;51.018;13.586;2023-03-16T19:10:02;15.15;;;4.45;;
43154;SDS011;34212;51.018;13.586;2023-03-16T19:15:27;7.57;;;3.70;;
43154;SDS011;34212;51.018;13.586;2023-03-16T19:20:34;7.70;;;4.03;;
43154;SDS011;34212;51.018;13.586;2023-03-16T19:25:36;9.18;;;3.45;;
43154;SDS011;34212;51.018;13.586;2023-03-16T19:30:40;8.65;;;3.90;;
43154;SDS011;34212;51.018;13.586;2023-03-16T19:35:41;6.57;;;3.40;;
43154;SDS011;34212;51.018;13.586;2023-03-16T19:40:55;8.32;;;4.03;;
43154;SDS011;34212;51.018;13.586;2023-03-16T19:45:59;7.78;;;3.80;;
43154;SDS011;34212;51.018;13.586;2023-03-16T19:51:00;9.75;;;3.80;;
43154;SDS011;34212;51.018;13.586;2023-03-16T19:56:02;9.30;;;3.47;;
43154;SDS011;34212;51.018;13.586;2023-03-16T20:01:17;8.65;;;3.97;;
43154;SDS011;34212;51.018;13.586;2023-03-16T20:06:22;8.52;;;3.50;;
43154;SDS011;34212;51.018;13.586;2023-03-16T20:11:27;8.85;;;3.67;;
43154;SDS011;34212;51.018;13.586;2023-03-16T20:16:31;8.32;;;3.30;;
43154;SDS011;34212;51.018;13.586;2023-03-16T20:21:34;5.22;;;3.00;;
43154;SDS011;34212;51.018;13.586;2023-03-16T20:26:36;5.93;;;3.33;;
43154;SDS011;34212;51.018;13.586;2023-03-16T20:31:37;7.25;;;3.45;;
43154;SDS011;34212;51.018;13.586;2023-03-16T20:36:39;6.10;;;3.30;;
43154;SDS011;34212;51.018;13.586;2023-03-16T20:41:40;8.35;;;3.22;;
43154;SDS011;34212;51.018;13.586;2023-03-16T20:46:42;8.02;;;3.22;;
43154;SDS011;34212;51.018;13.586;2023-03-16T20:51:45;8.63;;;4.20;;
43154;SDS011;34212;51.018;13.586;2023-03-16T20:56:46;9.20;;;3.80;;
43154;SDS011;34212;51.018;13.586;2023-03-16T21:01:48;7.50;;;3.45;;
43154;SDS011;34212;51.018;13.586;2023-03-16T21:06:50;7.97;;;3.30;;
43154;SDS011;34212;51.018;13.586;2023-03-16T21:11:52;8.77;;;3.53;;
43154;SDS011;34212;51.018;13.586;2023-03-16T21:16:53;6.78;;;3.25;;
43154;SDS011;34212;51.018;13.586;2023-03-16T21:21:55;6.22;;;3.10;;
43154;SDS011;34212;51.018;13.586;2023-03-16T21:26:56;8.45;;;3.22;;
43154;SDS011;34212;51.018;13.586;2023-03-16T21:31:57;7.50;;;3.65;;
43154;SDS011;34212;51.018;13.586;2023-03-16T21:36:59;5.88;;;2.97;;
43154;SDS011;34212;51.018;13.586;2023-03-16T21:42:00;7.40;;;3.53;;
43154;SDS011;34212;51.018;13.586;2023-03-16T21:47:02;6.75;;;3.55;;
43154;SDS011;34212;51.018;13.586;2023-03-16T21:52:09;9.60;;;3.72;;
43154;SDS011;34212;51.018;13.586;2023-03-16T21:57:30;6.72;;;3.40;;
43154;SDS011;34212;51.018;13.586;2023-03-16T22:02:32;12.77;;;3.42;;
43154;SDS011;34212;51.018;13.586;2023-03-16T22:07:36;8.70;;;3.60;;
43154;SDS011;34212;51.018;13.586;2023-03-16T22:12:37;6.60;;;3.85;;
43154;SDS011;34212;51.018;13.586;2023-03-16T22:17:39;7.40;;;3.50;;
43154;SDS011;34212;51.018;13.586;2023-03-16T22:22:40;10.68;;;3.85;;
43154;SDS011;34212;51.018;13.586;2023-03-16T22:27:42;10.10;;;4.25;;
43154;SDS011;34212;51.018;13.586;2023-03-16T22:32:45;14.55;;;5.53;;
43154;SDS011;34212;51.018;13.586;2023-03-16T22:37:49;10.10;;;4.97;;
43154;SDS011;34212;51.018;13.586;2023-03-16T22:42:50;10.32;;;4.68;;
43154;SDS011;34212;51.018;13.586;2023-03-16T22:47:52;9.48;;;3.95;;
43154;SDS011;34212;51.018;13.586;2023-03-16T22:52:57;9.77;;;3.65;;
43154;SDS011;34212;51.018;13.586;2023-03-16T22:58:02;8.25;;;3.42;;
43154;SDS011;34212;51.018;13.586;2023-03-16T23:03:12;4.75;;;2.45;;
43154;SDS011;34212;51.018;13.586;2023-03-16T23:08:19;5.03;;;3.13;;
43154;SDS011;34212;51.018;13.586;2023-03-16T23:13:22;5.15;;;3.33;;
43154;SDS011;34212;51.018;13.586;2023-03-16T23:18:25;8.30;;;2.92;;
43154;SDS011;34212;51.018;13.586;2023-03-16T23:23:27;5.97;;;3.72;;
43154;SDS011;34212;51.018;13.586;2023-03-16T23:28:28;5.78;;;3.40;;
43154;SDS011;34212;51.018;13.586;2023-03-16T23:33:29;5.88;;;3.22;;
43154;SDS011;34212;51.018;13.586;2023-03-16T23:38:31;6.18;;;3.50;;
43154;SDS011;34212;51.018;13.586;2023-03-16T23:43:32;8.30;;;3.25;;
43154;SDS011;34212;51.018;13.586;2023-03-16T23:48:34;5.45;;;3.40;;
43154;SDS011;34212;51.018;13.586;2023-03-16T23:53:38;5.53;;;2.97;;
43154;SDS011;34212;51.018;13.586;2023-03-16T23:58:40;5.93;;;3.22;;
